Lindsay, Canada
Current Conditions -  °F | °C
As of 4:00 AM on Friday 24 Oct 2014 (Local Time) from CYPQ Reporting Station
Few Clouds Few Clouds  
Wind Chill: 39°   Ceiling: Unl
Heat Index: 39°   Visibility: 9mi
Dew Point: 37°   Wind: 3mph
Humidity: 93%   Direction: 260°W
Pressure: 30"   Gusts: NA
Location:  44.35°N, 78.74°W
Report Text: CYPQ 240800Z AUTO 26003KT 9SM FEW035 04/03 A3000 RMK SLP163
Loading
Personal Weather Stations






























Interactive Weather Map
Tropical Storm Tracking
New forecast layout! Learn more

10-Day Weather Forecast

Advertisements
Track Severe Weather on mobile